Dallas, TX (75202)

10:52 AM CDT on July 06, 2015 (GMT -0500)
Deep Ellum | | Change Station
CLOSE
Current Station
Personal Weather Station
Location: Dallas, TX
Elevation: 489 ft
Nearby Weather Stations
Active Advisory: Flood Warning

Elev 489 ft 32.78 °N, 96.78 °W | Updated 5 seconds ago

Mostly Cloudy
Mostly Cloudy
85.5 °F
Feels Like 92 °F
N
6.7
Wind Variable Wind from South
Gusts 9.8 mph

Today
High -- | Low -- °F
--% Chance of Precip.
Yesterday
High -- | Low -- °F
Precip. -- in
6:24 AM 8:38 PM
Waning Gibbous, 74% visible
Pressure 30.03 in
Visibility 7.0 miles
Clouds Scattered Clouds 2800 ft
Mostly Cloudy 7500 ft
Mostly Cloudy 9000 ft
Heat Index 92 °F
Dew Point 73 °F
Humidity 66%
Rainfall 0.00 in
Snow Depth Not available.
UV 3.0 out of 12
Pollen 5.20 out of 12
Air Quality Not available.
Flu Activity Not available.
SPECI KDAL 061517Z 19016G20KT 7SM SCT028 BKN075 BKN090 29/22 A3003 RMK AO2 SCT V BKN T02940217

More Conditions Fewer Conditions

Pressure 30.03 in
Visibility 7.0 miles
Clouds Scattered Clouds 2800 ft
Mostly Cloudy 7500 ft
Mostly Cloudy 9000 ft
Heat Index 92 °F
Dew Point 73 °F
Humidity 66%
Rainfall 0.00 in
Snow Depth Not available.
UV 3.0 out of 12
Pollen 5.20 out of 12
Air Quality Not available.
Flu Activity Not available.
SPECI KDAL 061517Z 19016G20KT 7SM SCT028 BKN075 BKN090 29/22 A3003 RMK AO2 SCT V BKN T02940217

More Conditions Fewer Conditions

10-Day Weather Forecast

×

Almanac

Astronomy

Jul. 06, 2015 Rise Set
Actual Time
Civil Twilight
Nautical Twilight
Astronomical Twilight
Moon
Length of Visible Light
Length of Day
Tomorrow will be .
, % of the Moon is Illuminated

Today's Extremes

State Highs State Lows

Community

WunderPhotos

Upload Photos

1,835,576 photos uploaded!

WunderBlogs® & News

Nearby

Air Quality

  Air Quality AQ Index Pollutant
Not available.

Snow Depth

Station Depth Elevation

Earthquake Activity

City Distance Mag. Time & Date
Minimum magnitude displayed is 2.5.

Coastal Water Temperatures

Place Temperature

Stations

Nearby Weather Stations

Station Location Temp. Windchill Dew Point Humidity Wind Precip. Elev Updated Type
                   
Flood Warning
Statement as of 10:12 AM CDT on July 06, 2015

The Flood Warning continues for
the Elm Fork Trinity River near Carrollton.
* At 0915 am Monday the stage was 8.21 feet.
* Flood stage is 8 feet.
* Minor flooding is occurring and minor flooding is forecast.
* Forecast... the river will remain near 8 feet for the next few
days.
* At 8 feet, minor flooding will occur downstream from the gauge.


Lat... Lon 3300 9700 3287 9699 3287 9687 3300 9688